createdAt,value
2018-11-10T00:00:19.214Z,9.90
2018-11-10T00:02:48.850Z,9.90
2018-11-10T00:05:18.628Z,9.90
2018-11-10T00:07:47.509Z,9.90
2018-11-10T00:10:16.976Z,9.90
2018-11-10T00:12:46.251Z,9.80
2018-11-10T00:15:15.260Z,9.80
2018-11-10T00:17:44.061Z,9.80
2018-11-10T00:20:12.917Z,9.80
2018-11-10T00:22:42.465Z,9.80
2018-11-10T00:25:13.298Z,9.80
2018-11-10T00:27:43.184Z,9.80
2018-11-10T00:30:13.564Z,9.80
2018-11-10T00:32:42.923Z,9.80
2018-11-10T00:35:11.715Z,9.70
2018-11-10T00:37:40.577Z,9.60
2018-11-10T00:40:11.483Z,9.50
2018-11-10T00:42:40.395Z,9.30
2018-11-10T00:45:09.523Z,9.20
2018-11-10T00:47:38.634Z,9.30
2018-11-10T00:50:07.986Z,9.40
2018-11-10T00:52:37.048Z,9.50
2018-11-10T00:55:05.967Z,9.50
2018-11-10T00:57:34.748Z,9.40
2018-11-10T01:00:03.687Z,9.40
2018-11-10T01:02:32.550Z,9.30
2018-11-10T01:05:01.341Z,9.40
2018-11-10T01:07:30.208Z,9.40
2018-11-10T01:09:59.055Z,9.50
2018-11-10T01:12:27.854Z,9.50
2018-11-10T01:14:56.660Z,9.40
2018-11-10T01:17:25.476Z,9.40
2018-11-10T01:19:54.248Z,9.30
2018-11-10T01:22:23.060Z,9.20
2018-11-10T01:24:51.831Z,9.10
2018-11-10T01:27:20.671Z,9.00
2018-11-10T01:29:49.494Z,9.00
2018-11-10T01:32:18.307Z,9.00
2018-11-10T01:34:47.115Z,9.00
2018-11-10T01:37:15.941Z,8.80
2018-11-10T01:39:44.716Z,8.80
2018-11-10T01:42:13.535Z,8.80
2018-11-10T01:44:42.375Z,8.80
2018-11-10T01:47:11.195Z,8.70
2018-11-10T01:49:39.969Z,8.60
2018-11-10T01:52:08.743Z,8.50
2018-11-10T01:54:37.574Z,8.40
2018-11-10T01:57:06.423Z,8.60
2018-11-10T01:59:35.263Z,8.60
2018-11-10T02:02:04.112Z,8.80
2018-11-10T02:04:32.884Z,8.80
2018-11-10T02:07:01.707Z,8.90
2018-11-10T02:09:30.505Z,9.00
2018-11-10T02:11:59.364Z,9.10
2018-11-10T02:14:31.923Z,9.10
2018-11-10T02:17:00.784Z,9.10
2018-11-10T02:19:29.677Z,9.00
2018-11-10T02:21:58.444Z,9.00
2018-11-10T02:24:27.384Z,8.90
2018-11-10T02:26:56.264Z,8.90
2018-11-10T02:29:25.223Z,8.90
2018-11-10T02:31:54.006Z,8.90
2018-11-10T02:34:22.848Z,8.80
2018-11-10T02:36:51.671Z,8.70
2018-11-10T02:39:20.464Z,8.70
2018-11-10T02:41:49.270Z,8.60
2018-11-10T02:44:18.060Z,8.50
2018-11-10T02:46:46.879Z,8.50
2018-11-10T02:49:15.843Z,8.50
2018-11-10T02:51:44.703Z,8.40
2018-11-10T02:54:13.469Z,8.50
2018-11-10T02:56:42.528Z,8.50
2018-11-10T02:59:11.343Z,8.50
2018-11-10T03:01:40.140Z,8.50
2018-11-10T03:04:08.960Z,8.50
2018-11-10T03:06:37.779Z,8.40
2018-11-10T03:09:08.149Z,8.30
2018-11-10T03:11:37.140Z,8.30
2018-11-10T03:14:06.811Z,8.30
2018-11-10T03:16:35.700Z,8.40
2018-11-10T03:19:04.559Z,8.40
2018-11-10T03:21:33.399Z,8.40
2018-11-10T03:24:02.216Z,8.40
2018-11-10T03:26:31.077Z,8.50
2018-11-10T03:28:59.984Z,8.40
2018-11-10T03:31:28.764Z,8.40
2018-11-10T03:33:57.598Z,8.40
2018-11-10T03:36:26.463Z,8.40
2018-11-10T03:38:55.284Z,8.40
2018-11-10T03:41:24.106Z,8.40
2018-11-10T03:43:52.902Z,8.30
2018-11-10T03:46:21.729Z,8.20
2018-11-10T03:48:50.632Z,8.20
2018-11-10T03:51:19.412Z,8.20
2018-11-10T03:53:48.237Z,8.30
2018-11-10T03:56:17.054Z,8.30
2018-11-10T03:58:45.857Z,8.30
2018-11-10T04:01:14.704Z,8.30
2018-11-10T04:03:43.546Z,8.30
2018-11-10T04:06:12.368Z,8.30
2018-11-10T04:08:41.152Z,8.30
2018-11-10T04:11:09.927Z,8.30
2018-11-10T04:13:38.852Z,8.30
2018-11-10T04:16:07.692Z,8.30
2018-11-10T04:18:36.540Z,8.30
2018-11-10T04:21:05.400Z,8.30
2018-11-10T04:23:34.224Z,8.30
2018-11-10T04:26:03.069Z,8.30
2018-11-10T04:28:31.896Z,8.20
2018-11-10T04:31:00.734Z,8.20
2018-11-10T04:33:29.593Z,8.20
2018-11-10T04:35:58.403Z,8.20
2018-11-10T04:38:27.220Z,8.20
2018-11-10T04:40:56.024Z,8.30
2018-11-10T04:43:24.825Z,8.20
2018-11-10T04:45:53.633Z,8.20
2018-11-10T04:48:22.467Z,8.20
2018-11-10T04:50:51.311Z,8.30
2018-11-10T04:53:20.254Z,8.20
2018-11-10T04:55:49.045Z,8.20
2018-11-10T04:58:17.861Z,8.30
2018-11-10T05:00:46.707Z,8.20
2018-11-10T05:03:15.523Z,8.20
2018-11-10T05:05:44.307Z,8.20
2018-11-10T05:08:13.065Z,8.20
2018-11-10T05:10:41.848Z,8.20
2018-11-10T05:13:10.672Z,8.20
2018-11-10T05:15:39.564Z,8.20
2018-11-10T05:18:08.387Z,8.20
2018-11-10T05:20:37.199Z,8.20
2018-11-10T05:23:06.086Z,8.20
2018-11-10T05:25:34.933Z,8.20
2018-11-10T05:28:03.735Z,8.20
2018-11-10T05:30:32.562Z,8.10
2018-11-10T05:33:01.408Z,8.10
2018-11-10T05:35:30.246Z,8.10
2018-11-10T05:37:59.053Z,8.10
2018-11-10T05:40:27.887Z,8.10
2018-11-10T05:42:56.704Z,8.10
2018-11-10T05:45:25.530Z,8.00
2018-11-10T05:47:54.408Z,8.00
2018-11-10T05:50:23.260Z,8.00
2018-11-10T05:52:52.104Z,8.00
2018-11-10T05:55:21.014Z,8.00
2018-11-10T05:57:49.796Z,8.00
2018-11-10T06:00:19.828Z,8.00
2018-11-10T06:02:48.678Z,8.00
2018-11-10T06:05:17.553Z,7.90
2018-11-10T06:07:46.428Z,7.90
2018-11-10T06:10:15.532Z,7.90
2018-11-10T06:12:44.430Z,7.90
2018-11-10T06:15:13.241Z,7.90
2018-11-10T06:17:42.055Z,7.90
2018-11-10T06:20:12.371Z,7.90
2018-11-10T06:22:41.256Z,7.90
2018-11-10T06:25:10.952Z,7.90
2018-11-10T06:27:40.147Z,7.90
2018-11-10T06:30:10.576Z,7.90
2018-11-10T06:32:39.740Z,7.90
2018-11-10T06:35:08.994Z,7.90
2018-11-10T06:37:37.797Z,7.90
2018-11-10T06:40:08.671Z,7.90
2018-11-10T06:42:37.537Z,7.90
2018-11-10T06:45:06.767Z,8.00
2018-11-10T06:47:36.029Z,8.00
2018-11-10T06:50:06.274Z,7.90
2018-11-10T06:52:35.140Z,7.90
2018-11-10T06:55:04.080Z,7.90
2018-11-10T06:57:32.924Z,7.90
2018-11-10T07:00:01.815Z,7.90
2018-11-10T07:02:30.662Z,7.90
2018-11-10T07:04:59.515Z,7.90
2018-11-10T07:07:28.361Z,7.90
2018-11-10T07:09:57.223Z,7.90
2018-11-10T07:12:26.042Z,7.90
2018-11-10T07:14:54.866Z,7.90
2018-11-10T07:17:23.795Z,7.90
2018-11-10T07:19:52.697Z,7.90
2018-11-10T07:22:21.514Z,7.90
2018-11-10T07:24:50.488Z,7.90
2018-11-10T07:27:19.432Z,8.00
2018-11-10T07:29:48.295Z,8.00
2018-11-10T07:32:17.155Z,8.00
2018-11-10T07:34:46.031Z,8.00
2018-11-10T07:37:14.863Z,8.10
2018-11-10T07:39:43.722Z,8.10
2018-11-10T07:42:12.509Z,8.10
2018-11-10T07:44:41.367Z,8.10
2018-11-10T07:47:10.169Z,8.20
2018-11-10T07:49:39.010Z,8.20
2018-11-10T07:52:07.847Z,8.20
2018-11-10T07:54:36.714Z,8.20
2018-11-10T07:57:05.766Z,8.20
2018-11-10T07:59:34.558Z,8.10
2018-11-10T08:02:03.400Z,8.20
2018-11-10T08:04:32.192Z,8.20
2018-11-10T08:07:00.998Z,8.20
2018-11-10T08:09:29.847Z,8.20
2018-11-10T08:11:58.640Z,8.30
2018-11-10T08:14:27.443Z,8.30
2018-11-10T08:16:56.223Z,8.20
2018-11-10T08:19:25.009Z,8.30
2018-11-10T08:21:53.838Z,8.20
2018-11-10T08:24:22.613Z,8.20
2018-11-10T08:26:51.502Z,8.30
2018-11-10T08:29:20.321Z,8.30
2018-11-10T08:31:49.154Z,8.40
2018-11-10T08:34:17.977Z,8.30
2018-11-10T08:36:46.771Z,8.40
2018-11-10T08:39:15.683Z,8.40
2018-11-10T08:41:44.456Z,8.40
2018-11-10T08:44:13.265Z,8.50
2018-11-10T08:46:42.093Z,8.50
2018-11-10T08:49:10.896Z,8.50
2018-11-10T08:51:39.708Z,8.50
2018-11-10T08:54:08.531Z,8.60
2018-11-10T08:56:37.359Z,8.60
2018-11-10T08:59:06.247Z,8.70
2018-11-10T09:01:35.016Z,8.70
2018-11-10T09:04:03.861Z,8.70
2018-11-10T09:06:32.681Z,8.70
2018-11-10T09:09:01.436Z,8.80
2018-11-10T09:11:30.709Z,8.90
2018-11-10T09:13:59.563Z,8.90
2018-11-10T09:16:28.375Z,9.00
2018-11-10T09:18:57.183Z,9.00
2018-11-10T09:21:26.115Z,9.00
2018-11-10T09:23:54.861Z,9.10
2018-11-10T09:26:23.676Z,9.10
2018-11-10T09:28:52.532Z,9.10
2018-11-10T09:31:21.306Z,9.20
2018-11-10T09:33:50.136Z,9.20
2018-11-10T09:36:18.941Z,9.30
2018-11-10T09:38:47.769Z,9.40
2018-11-10T09:41:16.579Z,9.40
2018-11-10T09:43:45.400Z,9.50
2018-11-10T09:46:14.272Z,9.60
2018-11-10T09:48:43.083Z,9.60
2018-11-10T09:51:11.905Z,9.70
2018-11-10T09:53:40.695Z,9.80
2018-11-10T09:56:09.773Z,9.80
2018-11-10T09:58:38.631Z,9.90
2018-11-10T10:01:07.683Z,10.00
2018-11-10T10:03:36.442Z,10.10
2018-11-10T10:06:05.382Z,10.10
2018-11-10T10:08:34.279Z,10.20
2018-11-10T10:11:03.152Z,10.20
2018-11-10T10:13:31.973Z,10.30
2018-11-10T10:16:00.910Z,10.40
2018-11-10T10:18:29.761Z,10.40
2018-11-10T10:20:58.783Z,10.50
2018-11-10T10:23:27.616Z,10.60
2018-11-10T10:25:56.512Z,10.70
2018-11-10T10:28:25.443Z,10.70
2018-11-10T10:30:54.262Z,10.80
2018-11-10T10:33:23.118Z,10.80
2018-11-10T10:35:52.011Z,11.00
2018-11-10T10:38:21.121Z,11.10
2018-11-10T10:40:49.945Z,11.20
2018-11-10T10:43:18.827Z,11.30
2018-11-10T10:45:47.747Z,11.50
2018-11-10T10:48:16.560Z,12.00
2018-11-10T10:50:45.441Z,12.40
2018-11-10T10:53:14.265Z,12.60
2018-11-10T10:55:43.162Z,12.80
2018-11-10T10:58:11.979Z,12.90
2018-11-10T11:00:46.034Z,13.00
2018-11-10T11:03:20.014Z,13.10
2018-11-10T11:05:53.972Z,13.10
2018-11-10T11:08:22.777Z,13.20
2018-11-10T11:10:51.595Z,13.30
2018-11-10T11:13:20.388Z,13.30
2018-11-10T11:15:49.212Z,13.40
2018-11-10T11:18:18.033Z,13.50
2018-11-10T11:20:46.847Z,13.70
2018-11-10T11:23:15.700Z,13.70
2018-11-10T11:25:44.736Z,13.80
2018-11-10T11:28:13.593Z,13.90
2018-11-10T11:30:42.456Z,14.00
2018-11-10T11:33:11.313Z,14.10
2018-11-10T11:35:40.133Z,14.20
2018-11-10T11:38:09.078Z,14.40
2018-11-10T11:40:37.937Z,14.40
2018-11-10T11:43:06.805Z,14.50
2018-11-10T11:45:35.637Z,14.60
2018-11-10T11:48:04.518Z,14.70
2018-11-10T11:50:33.755Z,14.80
2018-11-10T11:53:02.620Z,14.90
2018-11-10T11:55:31.587Z,15.00
2018-11-10T11:58:00.591Z,15.10
2018-11-10T12:00:29.540Z,15.20
2018-11-10T12:02:58.428Z,15.30
2018-11-10T12:05:27.236Z,15.30
2018-11-10T12:07:56.099Z,15.40
2018-11-10T12:10:25.069Z,15.50
2018-11-10T12:12:54.013Z,15.60
2018-11-10T12:15:23.039Z,15.70
2018-11-10T12:17:51.785Z,15.80
2018-11-10T12:20:20.747Z,15.90
2018-11-10T12:22:49.699Z,16.00
2018-11-10T12:25:18.475Z,16.20
2018-11-10T12:27:47.272Z,16.20
2018-11-10T12:30:16.236Z,16.30
2018-11-10T12:32:45.130Z,16.40
2018-11-10T12:35:14.640Z,16.50
2018-11-10T12:37:43.885Z,16.60
2018-11-10T12:40:13.853Z,16.70
2018-11-10T12:42:43.008Z,16.70
2018-11-10T12:45:13.142Z,16.80
2018-11-10T12:47:42.632Z,16.90
2018-11-10T12:50:13.652Z,17.00
2018-11-10T12:52:43.482Z,17.00
2018-11-10T12:55:13.759Z,17.10
2018-11-10T12:57:43.460Z,17.20
2018-11-10T13:00:13.841Z,17.20
2018-11-10T13:02:43.384Z,17.30
2018-11-10T13:05:12.761Z,17.40
2018-11-10T13:07:43.655Z,17.50
2018-11-10T13:10:13.089Z,17.50
2018-11-10T13:12:42.692Z,17.60
2018-11-10T13:15:11.664Z,17.70
2018-11-10T13:17:41.070Z,17.70
2018-11-10T13:20:12.531Z,17.80
2018-11-10T13:22:41.439Z,17.80
2018-11-10T13:25:11.388Z,17.90
2018-11-10T13:27:40.287Z,18.00
2018-11-10T13:30:10.703Z,18.00
2018-11-10T13:32:39.688Z,18.10
2018-11-10T13:35:09.444Z,18.10
2018-11-10T13:37:38.556Z,18.20
2018-11-10T13:40:08.377Z,18.10
2018-11-10T13:42:37.317Z,18.20
2018-11-10T13:45:07.975Z,18.30
2018-11-10T13:47:36.787Z,18.30
2018-11-10T13:50:07.556Z,18.30
2018-11-10T13:52:36.798Z,18.50
2018-11-10T13:55:05.637Z,18.40
2018-11-10T13:57:34.454Z,18.40
2018-11-10T14:00:03.301Z,18.40
2018-11-10T14:02:32.129Z,18.40
2018-11-10T14:05:00.924Z,18.60
2018-11-10T14:07:29.712Z,18.60
2018-11-10T14:09:58.549Z,18.60
2018-11-10T14:12:27.378Z,18.60
2018-11-10T14:14:56.128Z,18.70
2018-11-10T14:17:24.916Z,18.60
2018-11-10T14:19:54.628Z,18.60
2018-11-10T14:22:23.472Z,18.50
2018-11-10T14:24:52.324Z,18.50
2018-11-10T14:27:21.116Z,18.40
2018-11-10T14:29:49.936Z,18.30
2018-11-10T14:32:18.740Z,18.10
2018-11-10T14:34:47.600Z,18.10
2018-11-10T14:37:16.441Z,18.00
2018-11-10T14:39:45.235Z,17.90
2018-11-10T14:42:14.049Z,17.90
2018-11-10T14:44:42.885Z,18.00
2018-11-10T14:47:11.699Z,17.80
2018-11-10T14:49:40.500Z,17.70
2018-11-10T14:52:09.297Z,17.60
2018-11-10T14:54:38.125Z,17.50
2018-11-10T14:57:06.942Z,17.50
2018-11-10T14:59:35.868Z,17.40
2018-11-10T15:02:04.854Z,17.30
2018-11-10T15:04:33.610Z,17.20
2018-11-10T15:07:02.392Z,17.10
2018-11-10T15:09:31.192Z,17.10
2018-11-10T15:12:00.066Z,17.00
2018-11-10T15:14:28.812Z,16.90
2018-11-10T15:16:57.618Z,16.90
2018-11-10T15:19:26.402Z,16.90
2018-11-10T15:21:55.220Z,16.90
2018-11-10T15:24:24.029Z,16.90
2018-11-10T15:26:52.867Z,16.80
2018-11-10T15:29:21.673Z,16.70
2018-11-10T15:31:50.481Z,16.60
2018-11-10T15:34:19.259Z,16.60
2018-11-10T15:36:48.132Z,16.50
2018-11-10T15:39:16.914Z,16.50
2018-11-10T15:41:45.721Z,16.50
2018-11-10T15:44:14.504Z,16.40
2018-11-10T15:46:43.312Z,16.40
2018-11-10T15:49:12.095Z,16.30
2018-11-10T15:51:40.921Z,16.30
2018-11-10T15:54:09.775Z,16.30
2018-11-10T15:56:38.624Z,16.20
2018-11-10T15:59:07.820Z,16.20
2018-11-10T16:01:36.631Z,16.20
2018-11-10T16:04:05.777Z,16.20
2018-11-10T16:06:34.617Z,16.10
2018-11-10T16:09:03.598Z,16.10
2018-11-10T16:11:32.423Z,16.10
2018-11-10T16:14:01.237Z,16.00
2018-11-10T16:16:30.062Z,15.90
2018-11-10T16:18:58.848Z,15.80
2018-11-10T16:21:27.676Z,15.80
2018-11-10T16:23:56.500Z,15.70
2018-11-10T16:26:25.334Z,15.70
2018-11-10T16:28:54.162Z,15.70
2018-11-10T16:31:23.100Z,15.70
2018-11-10T16:33:51.908Z,15.70
2018-11-10T16:36:20.736Z,15.60
2018-11-10T16:38:49.602Z,15.60
2018-11-10T16:41:18.446Z,15.60
2018-11-10T16:43:47.279Z,15.60
2018-11-10T16:46:16.041Z,15.60
2018-11-10T16:48:44.835Z,15.40
2018-11-10T16:51:13.697Z,15.40
2018-11-10T16:53:42.549Z,15.40
2018-11-10T16:56:11.358Z,15.40
2018-11-10T16:58:40.153Z,15.30
2018-11-10T17:01:08.984Z,15.30
2018-11-10T17:03:37.816Z,15.30
2018-11-10T17:06:06.640Z,15.10
2018-11-10T17:08:35.947Z,15.00
2018-11-10T17:11:05.136Z,15.00
2018-11-10T17:13:34.358Z,15.00
2018-11-10T17:16:03.145Z,15.10
2018-11-10T17:18:32.212Z,15.10
2018-11-10T17:21:01.041Z,15.10
2018-11-10T17:23:30.001Z,15.10
2018-11-10T17:25:58.893Z,15.10
2018-11-10T17:28:27.989Z,15.00
2018-11-10T17:30:56.822Z,15.00
2018-11-10T17:33:25.631Z,14.90
2018-11-10T17:35:54.431Z,14.80
2018-11-10T17:38:23.307Z,14.80
2018-11-10T17:40:52.209Z,14.80
2018-11-10T17:43:21.049Z,14.70
2018-11-10T17:45:49.923Z,14.70
2018-11-10T17:48:18.835Z,14.70
2018-11-10T17:50:47.677Z,14.70
2018-11-10T17:53:16.531Z,14.70
2018-11-10T17:55:45.378Z,14.60
2018-11-10T17:58:14.258Z,14.60
2018-11-10T18:00:43.197Z,14.60
2018-11-10T18:03:12.042Z,14.60
2018-11-10T18:05:40.858Z,14.50
2018-11-10T18:08:09.722Z,14.50
2018-11-10T18:10:38.576Z,14.50
2018-11-10T18:13:07.489Z,14.40
2018-11-10T18:15:36.348Z,14.40
2018-11-10T18:18:05.175Z,14.40
2018-11-10T18:20:33.997Z,14.30
2018-11-10T18:23:02.907Z,14.30
2018-11-10T18:25:31.860Z,14.20
2018-11-10T18:28:00.687Z,14.10
2018-11-10T18:30:29.623Z,14.10
2018-11-10T18:32:58.461Z,14.00
2018-11-10T18:35:27.318Z,14.00
2018-11-10T18:37:56.172Z,13.90
2018-11-10T18:40:25.054Z,13.90
2018-11-10T18:42:53.906Z,13.90
2018-11-10T18:45:22.789Z,13.90
2018-11-10T18:47:51.636Z,13.70
2018-11-10T18:50:20.496Z,13.50
2018-11-10T18:52:49.304Z,13.60
2018-11-10T18:55:18.084Z,13.60
2018-11-10T18:57:48.891Z,13.60
2018-11-10T19:00:18.202Z,13.60
2018-11-10T19:02:47.898Z,13.70
2018-11-10T19:05:18.114Z,13.60
2018-11-10T19:07:47.890Z,13.60
2018-11-10T19:10:18.114Z,13.40
2018-11-10T19:12:47.963Z,13.50
2018-11-10T19:15:20.435Z,13.50
2018-11-10T19:17:50.278Z,13.40
2018-11-10T19:20:20.604Z,13.50
2018-11-10T19:22:49.965Z,13.50
2018-11-10T19:25:19.790Z,13.40
2018-11-10T19:27:49.116Z,13.30
2018-11-10T19:30:20.239Z,13.20
2018-11-10T19:32:50.825Z,13.30
2018-11-10T19:35:20.183Z,13.20
2018-11-10T19:37:49.609Z,13.20
2018-11-10T19:40:19.260Z,13.20
2018-11-10T19:42:48.436Z,13.10
2018-11-10T19:45:17.316Z,13.10
2018-11-10T19:47:47.044Z,13.00
2018-11-10T19:50:16.620Z,12.90
2018-11-10T19:52:45.586Z,12.90
2018-11-10T19:55:16.091Z,12.90
2018-11-10T19:57:46.414Z,12.90
2018-11-10T20:00:22.460Z,12.90
2018-11-10T20:02:52.731Z,12.80
2018-11-10T20:05:22.459Z,12.80
2018-11-10T20:07:51.294Z,12.70
2018-11-10T20:10:20.163Z,12.70
2018-11-10T20:12:49.423Z,12.60
2018-11-10T20:15:19.433Z,12.40
2018-11-10T20:17:48.613Z,12.30
2018-11-10T20:20:19.401Z,12.30
2018-11-10T20:22:49.483Z,12.20
2018-11-10T20:25:19.380Z,12.10
2018-11-10T20:27:48.560Z,11.90
2018-11-10T20:30:18.960Z,12.00
2018-11-10T20:32:48.143Z,11.90
2018-11-10T20:35:17.295Z,11.90
2018-11-10T20:37:47.451Z,11.90
2018-11-10T20:40:17.079Z,11.90
2018-11-10T20:42:46.436Z,11.90
2018-11-10T20:45:17.268Z,11.90
2018-11-10T20:47:47.265Z,11.90
2018-11-10T20:50:17.144Z,11.90
2018-11-10T20:52:46.824Z,11.90
2018-11-10T20:55:16.555Z,11.80
2018-11-10T20:57:45.553Z,11.80
2018-11-10T21:00:18.335Z,11.70
2018-11-10T21:02:47.732Z,11.60
2018-11-10T21:05:17.034Z,11.60
2018-11-10T21:07:46.546Z,11.60
2018-11-10T21:10:18.103Z,11.60
2018-11-10T21:12:48.464Z,11.60
2018-11-10T21:15:18.254Z,11.50
2018-11-10T21:17:47.939Z,11.40
2018-11-10T21:20:17.135Z,11.30
2018-11-10T21:22:46.416Z,11.30
2018-11-10T21:25:16.632Z,11.20
2018-11-10T21:27:46.348Z,11.20
2018-11-10T21:30:16.763Z,11.00
2018-11-10T21:32:46.470Z,11.00
2018-11-10T21:35:15.744Z,11.00
2018-11-10T21:37:44.701Z,10.90
2018-11-10T21:40:17.338Z,10.80
2018-11-10T21:42:46.457Z,10.80
2018-11-10T21:45:16.005Z,10.80
2018-11-10T21:47:45.203Z,10.80
2018-11-10T21:50:15.683Z,10.70
2018-11-10T21:52:45.077Z,10.80
2018-11-10T21:55:15.278Z,10.80
2018-11-10T21:57:44.865Z,10.80
2018-11-10T22:00:15.630Z,10.70
2018-11-10T22:02:45.056Z,10.70
2018-11-10T22:05:13.869Z,10.80
2018-11-10T22:07:42.705Z,10.80
2018-11-10T22:10:13.364Z,10.80
2018-11-10T22:12:42.373Z,10.80
2018-11-10T22:15:13.544Z,10.80
2018-11-10T22:17:43.112Z,10.80
2018-11-10T22:20:13.596Z,10.80
2018-11-10T22:22:42.466Z,10.80
2018-11-10T22:25:12.039Z,10.80
2018-11-10T22:27:42.381Z,10.80
2018-11-10T22:30:13.087Z,10.80
2018-11-10T22:32:42.354Z,10.80
2018-11-10T22:35:11.351Z,10.80
2018-11-10T22:37:40.322Z,10.70
2018-11-10T22:40:11.335Z,10.70
2018-11-10T22:42:40.797Z,10.70
2018-11-10T22:45:11.304Z,10.70
2018-11-10T22:47:40.960Z,10.60
2018-11-10T22:50:12.317Z,10.60
2018-11-10T22:52:41.153Z,10.60
2018-11-10T22:55:10.501Z,10.50
2018-11-10T22:57:39.298Z,10.50
2018-11-10T23:00:16.302Z,10.50
2018-11-10T23:02:53.279Z,10.50
2018-11-10T23:05:22.660Z,10.50
2018-11-10T23:07:51.477Z,10.40
2018-11-10T23:10:20.640Z,10.40
2018-11-10T23:12:50.335Z,10.40
2018-11-10T23:15:19.156Z,10.40
2018-11-10T23:17:47.984Z,10.30
2018-11-10T23:20:18.086Z,10.40
2018-11-10T23:22:46.934Z,10.30
2018-11-10T23:25:16.853Z,10.30
2018-11-10T23:27:45.695Z,10.40
2018-11-10T23:30:18.016Z,10.30
2018-11-10T23:32:46.831Z,10.20
2018-11-10T23:35:15.652Z,10.10
2018-11-10T23:37:44.428Z,10.10
2018-11-10T23:40:14.461Z,10.20
2018-11-10T23:42:43.583Z,10.10
2018-11-10T23:45:13.183Z,10.10
2018-11-10T23:47:42.022Z,10.00
2018-11-10T23:50:12.768Z,10.10
2018-11-10T23:52:41.596Z,10.00
2018-11-10T23:55:11.740Z,10.10
2018-11-10T23:57:40.556Z,10.10
